Maldives Meteorological Service

SYNOP

Station Code SYNOP
43555
AAXX 21064 43577 12464 41105 10302 20258 30110 40112 60001 82232 333 58002 82818 83077=
43533
AAXX 21064 43533 12462 70906 10313 20254 30114 40116 60001 8397/ 333 58009 82817 81918 87362=
43577
AAXX 21064 43577 12464 41105 10302 20258 30110 40112 60001 82232 333 58002 82818 83077=
43588
AAXX 21064 43588 11462 71105 10297 20256 30109 40110 69901 70362 82232 333 58004 82818 85363=
43599
AAXX 21064 43599 12459 71611 10304 20253 30107 40109 60001 82238 333 58000 82818 83361 87276 =
Last Updated : 2019-11-21 11:03:24